Tiempo atmosférico en la estación meteorológica de Riaño, León (1090 m.)



Fecha
DESCASC
Temp. máxima en grados centígrados (hora)
DESCASC
Temp. mínima en grados centígrados (hora)
DESCASC
Temp. media en grados centígrados
DESCASC
Racha de viento máxima en m/sg (hora)
DESCASC
Velocidad máxima media en intervalos de 10 minutos(hora)
DESCASC
Precipitaciones diarias en mm
DESCASC
Precipitaciones de 00:00 a 06:00 en mm
DESCASC
Precipitaciones de 06:00 a 12:00 en mm
DESCASC
Precipitaciones de 12:00 a 18:00 en mm
DESCASC
Precipitaciones de 18:00 a 24:00 en mm
DESCASC
04-03-2021 12.2 (17:00) 0.1 (04:00) 6.1 6.39 (15:40) 4.72 (15:50) 0 0 0 0 0
03-03-2021 12 (16:10) 1.4 (23:59) 6.7 5 (15:40) 2.78 (10:40) 1 1 0 0 0
02-03-2021 8.6 (17:20) 4.9 (08:00) 6.8 11.11 (07:40) 6.94 (07:30) 3.8 0 3 0.8 0
01-03-2021 7.4 (17:30) 1.2 (08:40) 4.3 13.61 (10:20) 8.61 (20:30) 21.4 1.8 10.6 4 5
28-02-2021 13 (14:40) -3.6 (-00:0) 4.7 8.06 (15:20) 5.56 (15:30) 0 0 0 0 0
27-02-2021 14.2 (15:20) 1 (00:00) 7.6 6.39 (17:20) 4.72 (16:20) 0 0 0 0 0
26-02-2021 14.2 (15:10) 2.1 (00:00) 8.1 6.11 (17:00) 4.44 (17:00) 0 0 0 0 0
25-02-2021 9.4 (17:20) 4.6 (00:00) 7 9.72 (00:20) 6.67 (01:40) 0.4 0 0.2 0.2 0
24-02-2021 13 (15:30) 0 (00:00) 6.5 14.44 (14:00) 7.5 (23:30) 0 0 0 0 0
23-02-2021 10.8 (15:20) -3.1 (-00:0) 3.9 8.61 (16:00) 4.72 (16:00) 0 0 0 0 0
22-02-2021 8.2 (16:00) -1 (-00:0) 3.6 7.5 (07:00) 5 (03:50) 6.8 3.4 3.2 0.2 0
21-02-2021 9 (04:50) 0.6 (00:00) 4.8 13.06 (00:40) 6.94 (01:30) 22.2 0 1.4 14.2 6.6
20-02-2021 10.3 (12:20) 5.9 (00:00) 8.1 21.67 (10:50) 12.22 (10:50) 1.2 0 0 1.2 0
19-02-2021 10.3 (14:20) 6.4 (00:00) 8.4 16.11 (14:40) 9.17 (14:40) 0.2 0 0.2 0 0
18-02-2021 8.6 (00:00) 5.4 (00:00) 7 18.89 (08:10) 11.11 (07:30) 8.6 0.2 5 3 0.4
17-02-2021 10 (15:40) 0.4 (00:00) 5.2 15.28 (22:40) 8.33 (22:20) 0.2 0 0 0 0.2
16-02-2021 9.1 (00:00) 1.2 (00:00) 5.2 16.11 (06:20) 7.22 (00:30) 0 0 0 0 0
15-02-2021 12.2 (16:50) 3 (00:00) 7.6 11.11 (19:20) 6.39 (19:20) 0 0 0 0 0
14-02-2021 10.9 (15:00) -0.5 (-00:0) 5.2 6.11 (19:30) 3.89 (19:30) 0 0 0 0 0
13-02-2021 9.7 (15:30) -0.1 (00:00) 4.8 2.5 (13:40) 1.67 (13:40) 0 0 0 0 0
12-02-2021 8.7 (00:00) 0.8 (00:00) 4.7 10 (13:20) 4.17 (12:30) 13.2 11.2 2 0 0
11-02-2021 9.1 (23:30) 2 (00:00) 5.6 14.72 (22:30) 6.39 (22:00) 1.6 0 0.6 0 1
10-02-2021 9 (16:40) -0.3 (00:00) 4.3 8.33 (12:00) 4.17 (12:20) 4.6 0.6 2.6 1.4 0
09-02-2021 4.4 (15:00) 0.6 (00:00) 2.5 17.22 (06:20) 8.89 (06:30) 18 2.4 12.2 0.8 2.6
08-02-2021 6.9 (16:00) 0.6 (00:00) 3.8 6.94 (16:20) 4.17 (14:30) 2.6 2.2 0 0.2 0.2
07-02-2021 3.6 (14:10) -3 (-00:0) 0.3 6.11 (01:10) 4.72 (01:10) 1 0 0.2 0.2 0.6
06-02-2021 3.7 (03:20) 0.2 (00:00) 2 10.83 (03:40) 7.22 (18:40) 0 0 0 0 0
05-02-2021 4.8 (15:50) 3.3 (00:00) 4.1 7.78 (23:10) 4.72 (23:50) 0 0 0 0 0
04-02-2021 6.7 (00:00) 3.3 (00:00) 5 11.39 (01:10) 6.39 (00:20) 0 0 0 0 0

Gráficas

Temp. máximas Temp. mínimas Temp. medias Precipitaciones Rachas de viento máximas Velocidades máximas media en intervalos de 10 minutos

Datos horarios

Fecha y hora oficial Temperatura (ºC) Velocidad del viento (km/h) Dirección del viento Racha (km/h) Dirección de racha Precipitación (mm) Presión (hPa) Tendencia (hPa) Humedad (%)
2021-03-05 23:00:00 4.6 12 Norte 26 Noroeste 0 -- -- 81
2021-03-05 22:00:00 5 12 Norte 20 Norte 0 -- -- 85
2021-03-05 21:00:00 5.4 13 Norte 26 Norte 0 -- -- 86
2021-03-05 20:00:00 5.9 18 Norte 29 Norte 0 -- -- 84
2021-03-05 19:00:00 6.6 14 Norte 27 Norte 0 -- -- 79
2021-03-05 18:00:00 8.3 20 Norte 31 Noroeste 0 -- -- 73
2021-03-05 17:00:00 9.5 18 Noroeste 40 Norte 0 -- -- 68
2021-03-05 16:00:00 10.6 19 Noroeste 35 Noroeste 0 -- -- 62
2021-03-05 15:00:00 11.8 16 Norte 28 Norte 0 -- -- 55
2021-03-05 14:00:00 12.4 14 Norte 23 Norte 0 -- -- 55
2021-03-05 13:00:00 11.2 5 Norte 10 Norte 0 -- -- 60
2021-03-05 12:00:00 7 2 Este 5 Nordeste 0 -- -- 81
2021-03-05 11:00:00 3.4 0 Calma 5 Norte 0 -- -- 93
2021-03-05 10:00:00 1.2 2 Norte 6 Norte 0 -- -- 99
2021-03-05 09:00:00 0.6 3 Norte 6 Norte 0 -- -- 100
2021-03-05 08:00:00 0.4 0 Calma 5 Norte 0 -- -- 99
2021-03-05 07:00:00 0.4 0 Calma 4 Sur 0 -- -- 99
2021-03-05 06:00:00 0.3 0 Calma 4 Noroeste 0 -- -- 99
2021-03-05 05:00:00 -0.3 0 Calma 4 Sudoeste 0 -- -- 98
2021-03-05 04:00:00 -0.1 0 Calma 3 Sudoeste 0 -- -- 97
2021-03-05 03:00:00 0.2 0 Calma 2 Sur 0 -- -- 97
2021-03-05 02:00:00 0.7 0 Calma 3 Sur 0 -- -- 95
2021-03-05 01:00:00 1.2 0 Calma 2 Sur 0 -- -- 95
2021-03-05 00:00:00 1.8 0 Calma 4 Sur 0 -- -- 95
2021-03-04 23:00:00 2.7 0 Calma 3 Sudoeste 0 -- -- 93
2021-03-04 22:00:00 3.4 0 Calma 4 Sur 0 -- -- 90
2021-03-04 21:00:00 4.4 0 Calma 7 Sur 0 -- -- 87
2021-03-04 20:00:00 6.5 0 Calma 6 Sur 0 -- -- 80
2021-03-04 19:00:00 9 0 Calma 12 Sudoeste 0 -- -- 69
2021-03-04 18:00:00 10.7 6 Sur 17 Sudoeste 0 -- -- 64
2021-03-04 17:00:00 12.2 5 Oeste 21 Sur 0 -- -- 56
2021-03-04 16:00:00 10.9 13 Sudeste 23 Sur 0 -- -- 66
2021-03-04 15:00:00 11.4 3 Sudeste 8 Este 0 -- -- 67
2021-03-04 14:00:00 8.2 0 Calma 5 Sur 0 -- -- 80
2021-03-04 13:00:00 7.7 0 Calma 5 Nordeste 0 -- -- 80
2021-03-04 12:00:00 6.8 3 Nordeste 5 Nordeste 0 -- -- 85
2021-03-04 11:00:00 2.9 2 Nordeste 4 Nordeste 0 -- -- 98
2021-03-04 10:00:00 0.9 0 Calma 6 Nordeste 0 -- -- 100
2021-03-04 09:00:00 0.7 4 Este 6 Este 0 -- -- 99
2021-03-04 08:00:00 0.5 3 Nordeste 5 Nordeste 0 -- -- 99
2021-03-04 07:00:00 0.6 2 Sudeste 5 Nordeste 0 -- -- 99
2021-03-04 06:00:00 0.8 0 Calma 5 Sudeste 0 -- -- 99
2021-03-04 05:00:00 0.7 2 Sudeste 7 Noroeste 0 -- -- 98
2021-03-04 04:00:00 0.1 2 Noroeste 5 Noroeste 0 -- -- 97
2021-03-04 03:00:00 0.6 0 Calma 4 Sur 0 -- -- 96
2021-03-04 02:00:00 0.7 0 Calma 3 Sudoeste 0 -- -- 96
2021-03-04 01:00:00 0.8 0 Calma 2 Sur 0 -- -- 94
2021-03-04 00:00:00 1.4 0 Calma 2 Sudoeste 0 -- -- 93
2021-03-03 23:00:00 2.3 0 Calma 4 Noroeste 0 -- -- 91
2021-03-03 22:00:00 3.3 0 Calma 5 Sur 0 -- -- 90
2021-03-03 21:00:00 4.8 0 Calma 7 Noroeste 0 -- -- 85
2021-03-03 20:00:00 6.7 0 Calma 8 Oeste 0 -- -- 78
2021-03-03 19:00:00 9.7 4 Sudoeste 13 Sudoeste 0 -- -- 64
2021-03-03 18:00:00 10.9 0 Calma 9 Sudoeste 0 -- -- 63
2021-03-03 17:00:00 11.4 6 Sudoeste 13 Sudoeste 0 -- -- 61
2021-03-03 16:00:00 11.6 6 Sur 18 Sudoeste 0 -- -- 66
2021-03-03 15:00:00 11.2 4 Sur 14 Sudoeste 0 -- -- 66
2021-03-03 14:00:00 10.5 8 Sudoeste 17 Sudeste 0 -- -- 68
2021-03-03 13:00:00 9.9 7 Sudoeste 15 Sur 0 -- -- 71
2021-03-03 12:00:00 8.8 3 Sudeste 8 Sudeste 0 -- -- 79
2021-03-03 11:00:00 8.1 4 Sudeste 14 Sudeste 0 -- -- 88
2021-03-03 10:00:00 6.2 0 Calma 5 Sur 0 -- -- 98
2021-03-03 09:00:00 4.4 2 Sudoeste 9 Noroeste 0 -- -- 100
2021-03-03 08:00:00 3.7 0 Calma 5 Sur 0 -- -- 99
2021-03-03 07:00:00 3.7 0 Calma 4 Sur 0 -- -- 98
2021-03-03 06:00:00 3.8 3 Oeste 8 Sudoeste 0 -- -- 99
2021-03-03 05:00:00 3.6 0 Calma 6 Sudoeste 0 -- -- 99
2021-03-03 04:00:00 2.9 2 Sudoeste 7 Sur 0 -- -- 98
2021-03-03 03:00:00 3.3 0 Calma 8 Sudoeste 0 -- -- 95
2021-03-03 02:00:00 5 3 Sur 13 Este 0 -- -- 93
2021-03-03 01:00:00 5.9 0 Calma 14 Sudoeste 1 -- -- 91
2021-03-03 00:00:00 5.9 0 Calma 8 Sur 0 -- -- 94
2021-03-02 23:00:00 6.1 3 Sudeste 9 Sudeste 0 -- -- 92
2021-03-02 22:00:00 5.9 4 Sudeste 13 Sudeste 0 -- -- 93
2021-03-02 21:00:00 6.1 0 Calma 11 Sudeste 0 -- -- 89
2021-03-02 20:00:00 6.7 0 Calma 16 Sur 0 -- -- 86
2021-03-02 19:00:00 7.6 13 Sur 19 Sur 0 -- -- 80
2021-03-02 18:00:00 8.3 3 Sur 23 Sur 0 -- -- 82
2021-03-02 17:00:00 8.5 12 Sudoeste 27 Sur 0 -- -- 78
2021-03-02 16:00:00 8.5 4 Sur 24 Sudoeste 0 -- -- 81
2021-03-02 15:00:00 8 9 Sudoeste 24 Sur 0 -- -- 82
2021-03-02 14:00:00 7.5 5 Sudoeste 20 Sur 0.2 -- -- 87
2021-03-02 13:00:00 6.4 9 Sur 23 Sur 0.6 -- -- 93
2021-03-02 12:00:00 5.8 10 Sur 36 Sur 1.4 -- -- 96
2021-03-02 11:00:00 5.1 17 Sur 31 Sur 0 -- -- 97
2021-03-02 10:00:00 5.1 22 Sur 35 Sudeste 1 -- -- 95
2021-03-02 09:00:00 5 13 Sur 35 Sur 0.6 -- -- 95
2021-03-02 08:00:00 4.9 22 Sur 40 Sur 0 -- -- 96
2021-03-02 07:00:00 5.1 18 Sur 34 Sur 0 -- -- 96
2021-03-02 06:00:00 5.2 20 Sur 35 Sudoeste 0 -- -- 95
2021-03-02 05:00:00 5.3 17 Sudeste 35 Sudeste 0 -- -- 95
2021-03-02 04:00:00 5.5 17 Sur 32 Sur 0 -- -- 94
2021-03-02 03:00:00 5.8 10 Sur 33 Sudoeste 0 -- -- 92
2021-03-02 02:00:00 5.8 15 Sur 32 Sur 0 -- -- 92
2021-03-02 01:00:00 6.1 9 Sur 32 Sur 0 -- -- 91
2021-03-02 00:00:00 6.2 14 Sur 31 Sudoeste 0.2 -- -- 91
2021-03-01 23:00:00 6.1 8 Sur 41 Sur 1 -- -- 90
2021-03-01 22:00:00 6.2 14 Sudeste 40 Sudeste 1.2 -- -- 91
2021-03-01 21:00:00 6 13 Sur 44 Sudeste 2 -- -- 91
2021-03-01 20:00:00 6.7 6 Sudeste 16 Sudeste 0.4 -- -- 89
2021-03-01 19:00:00 7.2 10 Sudeste 24 Sudeste 0.2 -- -- 86
2021-03-01 18:00:00 7.4 6 Sudeste 26 Sudeste 0 -- -- 87
2021-03-01 17:00:00 7.2 8 Sur 27 Sur 0 -- -- 88
2021-03-01 16:00:00 6.6 9 Sur 21 Sudeste 0 -- -- 89
2021-03-01 15:00:00 5.8 10 Sur 32 Sudoeste 1.6 -- -- 91
2021-03-01 14:00:00 5.6 9 Sur 20 Sudeste 0 -- -- 89
2021-03-01 13:00:00 4.2 9 Sur 24 Sudeste 2.4 -- -- 93
2021-03-01 12:00:00 4.3 10 Sur 35 Sudeste 0.2 -- -- 92
2021-03-01 11:00:00 4.3 17 Sur 49 Sudeste 0.2 -- -- 89
2021-03-01 10:00:00 4.1 19 Sudeste 32 Sudeste 1.4 -- -- 92
2021-03-01 09:00:00 2.5 13 Sur 24 Sudeste 2.4 -- -- 97
2021-03-01 08:00:00 2 0 Calma 30 Sudeste 4.2 -- -- 93
2021-03-01 07:00:00 3.1 15 Sur 34 Sudeste 2.2 -- -- 92
2021-03-01 06:00:00 3.4 18 Sur 44 Sur 1.4 -- -- 90
2021-03-01 05:00:00 4.9 26 Sur 39 Sur 0.4 -- -- 88
2021-03-01 04:00:00 5.3 12 Sudeste 25 Sudeste 0 -- -- 87
2021-03-01 03:00:00 4.9 11 Sur 28 Sudeste 0 -- -- 87
2021-03-01 02:00:00 3.2 3 Noroeste 16 Sudeste 0 -- -- 85
2021-03-01 01:00:00 2.9 2 Noroeste 5 Sudoeste 0 -- -- 85
2021-03-01 00:00:00 3.4 2 Sudoeste 4 Sur 0 -- -- 82
2021-02-28 23:00:00 4.4 0 Calma 5 Sur 0 -- -- 77
2021-02-28 22:00:00 4.8 0 Calma 15 Este 0 -- -- 76
2021-02-28 21:00:00 5 7 Este 23 Este 0 -- -- 75
2021-02-28 20:00:00 6.4 11 Sudeste 25 Sudeste 0 -- -- 71
2021-02-28 19:00:00 7.9 3 Noroeste 9 Oeste 0 -- -- 63
2021-02-28 18:00:00 9.6 8 Este 22 Sur 0 -- -- 56
2021-02-28 17:00:00 11.9 13 Sur 23 Sur 0 -- -- 49
2021-02-28 16:00:00 12.6 13 Sur 29 Sudeste 0 -- -- 44
2021-02-28 15:00:00 12.9 17 Sudeste 24 Sudeste 0 -- -- 41
2021-02-28 14:00:00 12 4 Nordeste 5 Nordeste 0 -- -- 29
2021-02-28 13:00:00 10.1 0 Calma 4 Este 0 -- -- 35
2021-02-28 12:00:00 6.8 3 Este 6 Este 0 -- -- 57
2021-02-28 11:00:00 4 4 Nordeste 5 Este 0 -- -- 75
2021-02-28 10:00:00 1.3 2 Nordeste 4 Sudeste 0 -- -- 83
2021-02-28 09:00:00 -1.9 0 Calma 4 Sudoeste 0 -- -- 95
2021-02-28 08:00:00 -3.4 0 Calma 5 Sur 0 -- -- 94
2021-02-28 07:00:00 -2.7 0 Calma 5 Noroeste 0 -- -- 93
2021-02-28 06:00:00 -2.3 0 Calma 5 Noroeste 0 -- -- 92
2021-02-28 05:00:00 -1.6 2 Oeste 6 Sudeste 0 -- -- 92
2021-02-28 04:00:00 -1.3 2 Noroeste 8 Sur 0 -- -- 91
2021-02-28 03:00:00 -1.1 0 Calma 4 Sudoeste 0 -- -- 92
2021-02-28 02:00:00 -0.5 0 Calma 4 Norte 0 -- -- 89
2021-02-28 01:00:00 0.2 0 Calma 8 Oeste 0 -- -- 88
2021-02-28 00:00:00 1.2 2 Oeste 7 Noroeste 0 -- -- 86
2021-02-27 23:00:00 1.2 0 Calma 6 Sudoeste 0 -- -- 87
2021-02-27 22:00:00 2.1 0 Calma 9 Noroeste 0 -- -- 83
2021-02-27 21:00:00 4 2 Oeste 10 Nordeste 0 -- -- 75
2021-02-27 20:00:00 6.6 2 Este 19 Nordeste 0 -- -- 66
2021-02-27 19:00:00 8.4 3 Sudeste 11 Norte 0 -- -- 63
2021-02-27 18:00:00 11.4 4 Norte 23 Norte 0 -- -- 52
2021-02-27 17:00:00 13.1 6 Norte 23 Norte 0 -- -- 45
2021-02-27 16:00:00 13.4 10 Norte 21 Norte 0 -- -- 48
2021-02-27 15:00:00 13.5 5 Nordeste 6 Nordeste 0 -- -- 56
2021-02-27 14:00:00 11.3 2 Nordeste 6 Nordeste 0 -- -- 66
2021-02-27 13:00:00 9.2 2 Nordeste 6 Nordeste 0 -- -- 74
2021-02-27 12:00:00 5.3 2 Nordeste 8 Norte 0 -- -- 85
2021-02-27 11:00:00 2.8 0 Calma 3 Este 0 -- -- 99
2021-02-27 10:00:00 1.5 2 Nordeste 8 Este 0 -- -- 100
2021-02-27 09:00:00 1.3 5 Este 8 Nordeste 0 -- -- 99
2021-02-27 08:00:00 1.3 5 Este 10 Este 0 -- -- 99
2021-02-27 07:00:00 1.4 7 Este 10 Este 0 -- -- 98
2021-02-27 06:00:00 1.4 6 Este 8 Este 0 -- -- 96
2021-02-27 05:00:00 1.3 5 Este 9 Este 0 -- -- 95
2021-02-27 04:00:00 1.6 3 Este 6 Este 0 -- -- 95
2021-02-27 03:00:00 1.5 3 Este 6 Nordeste 0 -- -- 95
2021-02-27 02:00:00 1.4 0 Calma 3 Este 0 -- -- 96
2021-02-27 01:00:00 1.6 3 Noroeste 6 Este 0 -- -- 96
2021-02-27 00:00:00 2.1 0 Calma 3 Sudoeste 0 -- -- 94
2021-02-26 23:00:00 2.6 0 Calma 3 Sudoeste 0 -- -- 94
2021-02-26 22:00:00 3.7 0 Calma 4 Noroeste 0 -- -- 91
2021-02-26 21:00:00 5 2 Noroeste 9 Norte 0 -- -- 88
2021-02-26 20:00:00 6.6 2 Noroeste 13 Norte 0 -- -- 85
2021-02-26 19:00:00 8.3 4 Noroeste 16 Noroeste 0 -- -- 79
2021-02-26 18:00:00 10.2 5 Nordeste 18 Norte 0 -- -- 72
2021-02-26 17:00:00 11.7 16 Norte 22 Norte 0 -- -- 68
2021-02-26 16:00:00 12.5 10 Norte 16 Norte 0 -- -- 64
2021-02-26 15:00:00 14 6 Norte 13 Norte 0 -- -- 56
2021-02-26 14:00:00 12.7 5 Norte 6 Norte 0 -- -- 63
2021-02-26 13:00:00 10.8 3 Nordeste 8 Norte 0 -- -- 72
2021-02-26 12:00:00 9.6 5 Norte 7 Norte 0 -- -- 76
2021-02-26 11:00:00 7.3 0 Calma 6 Este 0 -- -- 86
2021-02-26 10:00:00 4.9 3 Este 6 Nordeste 0 -- -- 96
2021-02-26 09:00:00 3 3 Sudeste 7 Sudeste 0 -- -- 98
2021-02-26 08:00:00 2.7 3 Norte 6 Norte 0 -- -- 96
2021-02-26 07:00:00 2.5 0 Calma 4 Sur 0 -- -- 97
2021-02-26 06:00:00 2.6 0 Calma 3 Sur 0 -- -- 96
2021-02-26 05:00:00 3 0 Calma 4 Este 0 -- -- 96
2021-02-26 04:00:00 3.3 4 Nordeste 6 Nordeste 0 -- -- 96
2021-02-26 03:00:00 3.3 0 Calma 4 Sudeste 0 -- -- 95
2021-02-26 02:00:00 3.5 2 Sudoeste 4 Sur 0 -- -- 95
2021-02-26 01:00:00 3.8 0 Calma 5 Nordeste 0 -- -- 94
2021-02-26 00:00:00 4.6 0 Calma 9 Este 0 -- -- 92
2021-02-25 23:00:00 5.3 2 Este 8 Sudeste 0 -- -- 90
2021-02-25 22:00:00 5.4 0 Calma 16 Noroeste 0 -- -- 90
2021-02-25 21:00:00 5.9 5 Noroeste 18 Nordeste 0 -- -- 91
2021-02-25 20:00:00 6.5 3 Noroeste 15 Norte 0 -- -- 88
2021-02-25 19:00:00 7.9 3 Nordeste 11 Noroeste 0 -- -- 81
2021-02-25 18:00:00 9.1 4 Norte 6 Norte 0 -- -- 75
2021-02-25 17:00:00 9.3 4 Norte 8 Norte 0 -- -- 76
2021-02-25 16:00:00 9 8 Norte 12 Norte 0 -- -- 77
2021-02-25 15:00:00 8.3 9 Norte 13 Noroeste 0 -- -- 78
2021-02-25 14:00:00 7.7 4 Noroeste 8 Norte 0.2 -- -- 83
2021-02-25 13:00:00 6.8 0 Calma 10 Noroeste 0 -- -- 87
2021-02-25 12:00:00 6 6 Norte 10 Nordeste 0 -- -- 91
2021-02-25 11:00:00 6.1 5 Nordeste 19 Sur 0.2 -- -- 89
2021-02-25 10:00:00 6.5 11 Sur 22 Sur 0 -- -- 83
2021-02-25 09:00:00 6.5 14 Sudeste 24 Sudeste 0 -- -- 83
2021-02-25 08:00:00 6.5 14 Sur 25 Sur 0 -- -- 84
2021-02-25 07:00:00 6.4 10 Sur 24 Sudeste 0 -- -- 86
2021-02-25 06:00:00 6.6 13 Sudeste 30 Sur 0 -- -- 86
2021-02-25 05:00:00 6.7 19 Sudeste 32 Sudeste 0 -- -- 85
2021-02-25 04:00:00 6.9 18 Sudeste 31 Sudeste 0 -- -- 86
2021-02-25 03:00:00 6.8 21 Sudeste 33 Sur 0 -- -- 87
2021-02-25 02:00:00 6.9 22 Sudeste 33 Sudeste 0 -- -- 87
2021-02-25 01:00:00 7.1 17 Sur 35 Sudeste 0 -- -- 85
2021-02-25 00:00:00 7.4 23 Sudeste 38 Sudeste 0 -- -- 83
2021-02-24 23:00:00 8.2 21 Sudeste 45 Sudeste 0 -- -- 79
2021-02-24 22:00:00 8.6 20 Sudeste 35 Sudeste 0 -- -- 77
2021-02-24 21:00:00 8.2 4 Sudeste 24 Sur 0 -- -- 76
2021-02-24 20:00:00 8.8 6 Sur 27 Sur 0 -- -- 71
2021-02-24 19:00:00 10 12 Sudoeste 28 Sudoeste 0 -- -- 64
2021-02-24 18:00:00 11 16 Sur 31 Sudeste 0 -- -- 64
2021-02-24 17:00:00 12.6 8 Sudeste 35 Sur 0 -- -- 61
2021-02-24 16:00:00 12.4 22 Sur 41 Sur 0 -- -- 60
2021-02-24 15:00:00 12.3 22 Sudeste 50 Sur 0 -- -- 55
2021-02-24 14:00:00 11.1 25 Sur 52 Sur 0 -- -- 55
2021-02-24 13:00:00 11.1 18 Sudeste 33 Sudeste 0 -- -- 60
2021-02-24 12:00:00 9.9 20 Sudeste 27 Sur 0 -- -- 65
2021-02-24 11:00:00 7.8 7 Sudeste 18 Sudeste 0 -- -- 73
2021-02-24 10:00:00 4.3 3 Sur 9 Sur 0 -- -- 87
2021-02-24 09:00:00 0.5 3 Sudoeste 9 Sudoeste 0 -- -- 96
2021-02-24 08:00:00 0.2 3 Sur 12 Sur 0 -- -- 94
2021-02-24 07:00:00 0.3 5 Sudoeste 8 Sudoeste 0 -- -- 96
2021-02-24 06:00:00 1 5 Sudoeste 23 Sudeste 0 -- -- 92
2021-02-24 05:00:00 1.7 6 Sur 21 Sudeste 0 -- -- 91
2021-02-24 04:00:00 3.2 12 Sudeste 22 Sudeste 0 -- -- 89
2021-02-24 03:00:00 2.5 3 Sudoeste 8 Sur 0 -- -- 84
2021-02-24 02:00:00 3.1 3 Sudoeste 23 Sur 0 -- -- 83
2021-02-24 01:00:00 3.3 9 Sudeste 23 Sudeste 0 -- -- 82
2021-02-24 00:00:00 0.5 2 Sur 7 Sur 0 -- -- 87
2021-02-23 23:00:00 0.4 0 Calma 4 Sudoeste 0 -- -- 83
2021-02-23 22:00:00 1 0 Calma 8 Sur 0 -- -- 80
2021-02-23 21:00:00 2.2 2 Oeste 9 Sur 0 -- -- 76
2021-02-23 20:00:00 4 4 Sur 17 Sudeste 0 -- -- 66
2021-02-23 19:00:00 6.9 12 Sur 24 Sur 0 -- -- 57
2021-02-23 18:00:00 9.2 16 Sur 24 Sudeste 0 -- -- 49
2021-02-23 17:00:00 10.6 9 Sudoeste 26 Sudoeste 0 -- -- 38
2021-02-23 16:00:00 10.6 17 Sudoeste 31 Oeste 0 -- -- 34
2021-02-23 15:00:00 10.7 14 Sudoeste 26 Sudoeste 0 -- -- 42
2021-02-23 14:00:00 9.4 14 Sudoeste 27 Oeste 0 -- -- 51
2021-02-23 13:00:00 9 7 Sur 20 Sur 0 -- -- 56
2021-02-23 12:00:00 8.1 8 Sudeste 14 Sudeste 0 -- -- 59
2021-02-23 11:00:00 4.3 2 Sudeste 4 Sudeste 0 -- -- 78
2021-02-23 10:00:00 1.3 2 Sudeste 8 Sur 0 -- -- 89
2021-02-23 09:00:00 -2 0 Calma 5 Sur 0 -- -- 98
2021-02-23 08:00:00 -3 0 Calma 4 Sur 0 -- -- 97
2021-02-23 07:00:00 -2.8 2 Oeste 5 Sudoeste 0 -- -- 97
2021-02-23 06:00:00 -2.7 3 Sudoeste 5 Sudoeste 0 -- -- 97
2021-02-23 05:00:00 -2.5 2 Sudoeste 3 Sudoeste 0 -- -- 96
2021-02-23 04:00:00 -2 0 Calma 6 Noroeste 0 -- -- 96
2021-02-23 03:00:00 -1.9 0 Calma 5 Sur 0 -- -- 97
2021-02-23 02:00:00 -1.6 0 Calma 4 Sur 0 -- -- 96
2021-02-23 01:00:00 -1.2 0 Calma 6 Noroeste 0 -- -- 97
2021-02-23 00:00:00 -1 0 Calma 4 Sur 0 -- -- 96
2021-02-22 23:00:00 -0.5 0 Calma 4 Sur 0 -- -- 95
2021-02-22 22:00:00 0.3 0 Calma 4 Oeste 0 -- -- 95
2021-02-22 21:00:00 0.8 0 Calma 4 Noroeste 0 -- -- 92
2021-02-22 20:00:00 1.8 0 Calma 5 Noroeste 0 -- -- 89
2021-02-22 19:00:00 3.5 0 Calma 4 Noroeste 0 -- -- 85
2021-02-22 18:00:00 7.4 0 Calma 6 Norte 0 -- -- 72
2021-02-22 17:00:00 7.2 5 Noroeste 10 Este 0 -- -- 73
2021-02-22 16:00:00 8.2 3 Nordeste 6 Nordeste 0 -- -- 67
2021-02-22 15:00:00 6.3 2 Este 5 Nordeste 0 -- -- 68
2021-02-22 14:00:00 6.4 4 Nordeste 5 Norte 0.2 -- -- 73
2021-02-22 13:00:00 5.8 3 Nordeste 9 Norte 0 -- -- 74
2021-02-22 12:00:00 5.3 7 Norte 20 Noroeste 0.6 -- -- 79
2021-02-22 11:00:00 4 10 Norte 19 Norte 1.4 -- -- 82
2021-02-22 10:00:00 3.1 9 Norte 19 Norte 0.6 -- -- 88
2021-02-22 09:00:00 1.8 13 Norte 24 Norte 0.2 -- -- 90
2021-02-22 08:00:00 1.5 17 Norte 27 Norte 0.2 -- -- 93
2021-02-22 07:00:00 1.6 16 Norte 27 Norte 0.2 -- -- 93
2021-02-22 06:00:00 1.7 17 Norte 25 Norte 0.4 -- -- 96
2021-02-22 05:00:00 1.7 8 Norte 22 Norte 0.6 -- -- 96
2021-02-22 04:00:00 1.7 15 Nordeste 24 Norte 0.4 -- -- 96
2021-02-22 03:00:00 1.7 14 Nordeste 22 Norte 0.8 -- -- 97
2021-02-22 02:00:00 1.5 13 Norte 24 Nordeste 0.6 -- -- 97
2021-02-22 01:00:00 1 11 Norte 16 Nordeste 0.6 -- -- 98
2021-02-22 00:00:00 0.6 0 Calma 3 Nordeste 0.6 -- -- 97
2021-02-21 23:00:00 0.7 0 Calma 11 Norte 0.6 -- -- 97
2021-02-21 22:00:00 0.7 4 Norte 14 Norte 1 -- -- 98
2021-02-21 21:00:00 0.6 8 Norte 13 Norte 0.4 -- -- 97
2021-02-21 20:00:00 0.8 3 Noroeste 21 Norte 0.8 -- -- 96
2021-02-21 19:00:00 2.2 14 Norte 35 Norte 3.2 -- -- 94
2021-02-21 18:00:00 5.1 6 Noroeste 13 Norte 3.2 -- -- 95
2021-02-21 17:00:00 5.4 5 Noroeste 10 Noroeste 2.6 -- -- 94
2021-02-21 16:00:00 5.8 2 Sudeste 13 Este 3.2 -- -- 91
2021-02-21 15:00:00 6.2 9 Sudeste 23 Sudeste 2.6 -- -- 87
2021-02-21 14:00:00 6.4 2 Sudoeste 26 Sudeste 1.8 -- -- 88
2021-02-21 13:00:00 6.6 13 Sudeste 33 Este 0.8 -- -- 83
2021-02-21 12:00:00 6.6 3 Oeste 28 Sur 1.2 -- -- 83
2021-02-21 11:00:00 7.2 8 Sudoeste 39 Sudoeste 0.2 -- -- 71
2021-02-21 10:00:00 7.7 11 Sur 37 Sudoeste 0 -- -- 65
2021-02-21 09:00:00 7.9 21 Sudeste 42 Sudeste 0 -- -- 65
2021-02-21 08:00:00 8.2 13 Sur 33 Sudeste 0 -- -- 63
2021-02-21 07:00:00 8.3 19 Sur 40 Sur 0 -- -- 62
2021-02-21 06:00:00 8.7 15 Sur 39 Sudeste 0 -- -- 57
2021-02-21 05:00:00 8.9 17 Sudeste 39 Sur 0 -- -- 52
2021-02-21 04:00:00 8.5 13 Sudoeste 37 Sur 0 -- -- 49
2021-02-21 03:00:00 8.2 14 Sur 43 Sur 0 -- -- 48
2021-02-21 02:00:00 8.2 19 Sur 42 Sur 0 -- -- 50
2021-02-21 01:00:00 8.5 24 Sur 47 Sur 0 -- -- 53
2021-02-21 00:00:00 8.7 25 Sur 52 Sur 0 -- -- 50
2021-02-20 23:00:00 8.5 21 Sur 43 Sur 0 -- -- 58
2021-02-20 22:00:00 8.1 17 Sudeste 36 Sur 0 -- -- 63
2021-02-20 21:00:00 8.5 15 Sudoeste 53 Sudoeste 0 -- -- 66
2021-02-20 20:00:00 8.6 15 Sur 44 Sudeste 0 -- -- 66
2021-02-20 19:00:00 8.3 21 Sur 34 Sudoeste 0 -- -- 68
2021-02-20 18:00:00 8 19 Sudoeste 64 Sudoeste 0.6 -- -- 70
2021-02-20 17:00:00 7.6 28 Sur 55 Sudeste 0.6 -- -- 72
2021-02-20 16:00:00 8.7 22 Sur 57 Sudeste 0 -- -- 67
2021-02-20 15:00:00 8.7 29 Sur 58 Sur 0 -- -- 65
2021-02-20 14:00:00 9.1 29 Sur 59 Sudoeste 0 -- -- 59
2021-02-20 13:00:00 9.8 22 Sur 61 Sudeste 0 -- -- 55
2021-02-20 12:00:00 9.8 30 Sur 72 Sur 0 -- -- 51
2021-02-20 11:00:00 8.7 40 Sur 78 Sudoeste 0 -- -- 55
2021-02-20 10:00:00 7.7 26 Sur 55 Sur 0 -- -- 63
2021-02-20 09:00:00 6.1 34 Sudeste 68 Sur 0 -- -- 69
2021-02-20 08:00:00 6.7 36 Sur 66 Sudeste 0 -- -- 66
2021-02-20 07:00:00 6.4 32 Sur 66 Sur 0 -- -- 72
2021-02-20 06:00:00 6.3 33 Sur 66 Sudoeste 0 -- -- 74
2021-02-20 05:00:00 7.6 28 Sur 64 Sudoeste 0 -- -- 63
2021-02-20 04:00:00 7 19 Sur 61 Sudoeste 0 -- -- 77
2021-02-20 03:00:00 7.8 31 Sur 69 Sur 0 -- -- 76
2021-02-20 02:00:00 7.5 22 Sur 60 Sur 0 -- -- 79
2021-02-20 01:00:00 7.7 25 Sudoeste 54 Sur 0 -- -- 77
2021-02-20 00:00:00 7.6 22 Sur 41 Sur 0 -- -- 79
2021-02-19 23:00:00 7.8 24 Sur 58 Sudoeste 0 -- -- 75
2021-02-19 22:00:00 8.2 26 Sudoeste 53 Sudoeste 0 -- -- 69
2021-02-19 21:00:00 7.7 17 Sur 38 Sur 0 -- -- 68
2021-02-19 20:00:00 7.9 16 Sur 36 Sur 0 -- -- 65
2021-02-19 19:00:00 8.1 15 Sur 32 Sudeste 0 -- -- 67
2021-02-19 18:00:00 8.8 14 Sudoeste 37 Sudoeste 0 -- -- 62
2021-02-19 17:00:00 9.3 19 Sur 50 Sur 0 -- -- 62
2021-02-19 16:00:00 9.6 32 Sur 53 Sur 0 -- -- 63
2021-02-19 15:00:00 9.5 26 Sur 58 Sur 0 -- -- 65
2021-02-19 14:00:00 9.1 23 Sur 48 Sudoeste 0 -- -- 72
2021-02-19 13:00:00 8.4 14 Sur 45 Sur 0 -- -- 79
2021-02-19 12:00:00 7.3 9 Sur 39 Sur 0 -- -- 84
2021-02-19 11:00:00 7.4 18 Sur 41 Sudoeste 0 -- -- 83
2021-02-19 10:00:00 7.1 16 Sur 37 Sudoeste 0.2 -- -- 81
2021-02-19 09:00:00 6.9 12 Sur 41 Sur 0 -- -- 83
2021-02-19 08:00:00 6.8 20 Sur 46 Sur 0 -- -- 79
2021-02-19 07:00:00 6.8 18 Sur 35 Sur 0 -- -- 80
2021-02-19 06:00:00 6.8 16 Sur 40 Sudeste 0 -- -- 78
2021-02-19 05:00:00 6.9 17 Sudoeste 44 Sudoeste 0 -- -- 79
2021-02-19 04:00:00 6.8 18 Sudoeste 43 Sur 0 -- -- 75
2021-02-19 03:00:00 6.7 11 Sur 41 Sur 0 -- -- 77
2021-02-19 02:00:00 6.9 15 Sur 40 Sudoeste 0 -- -- 74
2021-02-19 01:00:00 6.7 11 Sur 36 Sur 0 -- -- 80
2021-02-19 00:00:00 6.4 17 Sur 33 Sur 0 -- -- 85
2021-02-18 23:00:00 6.6 14 Sur 34 Sur 0 -- -- 83
2021-02-18 22:00:00 6.2 17 Sur 32 Sudoeste 0 -- -- 88
2021-02-18 21:00:00 5.4 3 Noroeste 9 Oeste 0 -- -- 95
2021-02-18 20:00:00 5.5 0 Calma 7 Noroeste 0.2 -- -- 93
2021-02-18 19:00:00 6.1 3 Nordeste 12 Sur 0.2 -- -- 89
2021-02-18 18:00:00 7.2 0 Calma 14 Sudoeste 0.8 -- -- 87
2021-02-18 17:00:00 7.7 14 Sur 20 Sur 0.2 -- -- 85
2021-02-18 16:00:00 8.1 3 Nordeste 16 Sudoeste 0.2 -- -- 85
2021-02-18 15:00:00 7.6 8 Sudoeste 26 Oeste 0.8 -- -- 88
2021-02-18 14:00:00 7.2 13 Sur 36 Sur 1 -- -- 89
2021-02-18 13:00:00 6.7 18 Sur 39 Oeste 0 -- -- 89
2021-02-18 12:00:00 6.5 19 Sudoeste 31 Sudoeste 0.8 -- -- 87
2021-02-18 11:00:00 6.2 19 Sur 41 Sur 1 -- -- 88
2021-02-18 10:00:00 5.9 18 Sur 50 Sur 2.8 -- -- 89
2021-02-18 09:00:00 6.7 12 Sudoeste 68 Sur 0.4 -- -- 84
2021-02-18 08:00:00 7.2 35 Sur 67 Sur 0 -- -- 81
2021-02-18 07:00:00 7.3 37 Sur 60 Sur 0 -- -- 81
2021-02-18 06:00:00 7.1 27 Sur 54 Sur 0 -- -- 83
2021-02-18 05:00:00 7.3 24 Sur 48 Sur 0 -- -- 81
2021-02-18 04:00:00 7.9 28 Sudoeste 61 Sudoeste 0 -- -- 81
2021-02-18 03:00:00 8.1 21 Sudoeste 51 Sudoeste 0 -- -- 82
2021-02-18 02:00:00 8.4 26 Sudoeste 53 Sudoeste 0 -- -- 81
2021-02-18 01:00:00 8.4 27 Sudoeste 60 Sudoeste 0.2 -- -- 78
2021-02-18 00:00:00 8.6 26 Sudoeste 45 Sudoeste 0 -- -- 81
2021-02-17 23:00:00 9 21 Sur 55 Sur 0 -- -- 80
2021-02-17 22:00:00 8.9 22 Sur 54 Sur 0 -- -- 80
2021-02-17 21:00:00 8.3 17 Sur 35 Sur 0 -- -- 82
2021-02-17 20:00:00 8.1 16 Sur 42 Sur 0 -- -- 84
2021-02-17 19:00:00 7.8 18 Sudoeste 38 Sur 0.2 -- -- 87
2021-02-17 18:00:00 8.4 20 Sur 38 Sudoeste 0 -- -- 80
2021-02-17 17:00:00 9 22 Sur 36 Sur 0 -- -- 73
2021-02-17 16:00:00 9.4 15 Sur 28 Sur 0 -- -- 73
2021-02-17 15:00:00 8.9 15 Sudoeste 30 Sudoeste 0 -- -- 69
2021-02-17 14:00:00 8.1 16 Sur 32 Sudoeste 0 -- -- 77
2021-02-17 13:00:00 6.8 18 Sur 32 Sur 0 -- -- 82
2021-02-17 12:00:00 5.4 3 Nordeste 8 Nordeste 0 -- -- 97
2021-02-17 11:00:00 3.9 0 Calma 4 Sur 0 -- -- 100
2021-02-17 10:00:00 2.4 0 Calma 5 Noroeste 0 -- -- 100
2021-02-17 09:00:00 1.6 0 Calma 4 Este 0 -- -- 100
2021-02-17 08:00:00 1.3 0 Calma 5 Sudoeste 0 -- -- 100
2021-02-17 07:00:00 1 3 Este 5 Este 0 -- -- 100
2021-02-17 06:00:00 1 0 Calma 3 Sur 0 -- -- 100
2021-02-17 05:00:00 1 0 Calma 10 Sudoeste 0 -- -- 100
2021-02-17 04:00:00 1 2 Oeste 10 Sudoeste 0 -- -- 99
2021-02-17 03:00:00 0.4 0 Calma 4 Noroeste 0 -- -- 99
2021-02-17 02:00:00 0.4 0 Calma 5 Noroeste 0 -- -- 98
2021-02-17 01:00:00 1 0 Calma 6 Este 0 -- -- 98
2021-02-17 00:00:00 1.2 0 Calma 6 Sudoeste 0 -- -- 95
2021-02-16 23:00:00 2.2 2 Este 10 Este 0 -- -- 93
2021-02-16 22:00:00 3 3 Oeste 13 Oeste 0 -- -- 93
2021-02-16 21:00:00 3.8 4 Sudoeste 10 Sur 0 -- -- 91
2021-02-16 20:00:00 5.1 3 Sur 7 Sur 0 -- -- 88
2021-02-16 19:00:00 6.5 3 Sudoeste 17 Este 0 -- -- 84
2021-02-16 18:00:00 7.1 4 Nordeste 9 Nordeste 0 -- -- 90
2021-02-16 17:00:00 7.4 6 Este 8 Este 0 -- -- 91
2021-02-16 16:00:00 7.6 4 Sur 8 Sudeste 0 -- -- 92
2021-02-16 15:00:00 7 3 Nordeste 11 Nordeste 0 -- -- 93
2021-02-16 14:00:00 7.1 3 Sudeste 19 Sudoeste 0 -- -- 91
2021-02-16 13:00:00 6.8 7 Sur 28 Sudoeste 0 -- -- 88
2021-02-16 12:00:00 7 12 Sur 32 Sur 0 -- -- 81
2021-02-16 11:00:00 7 20 Sur 41 Sudoeste 0 -- -- 80
2021-02-16 10:00:00 6.9 23 Sur 47 Sur 0 -- -- 77
2021-02-16 09:00:00 7.1 23 Sur 44 Sur 0 -- -- 79
2021-02-16 08:00:00 7.3 21 Sur 44 Sur 0 -- -- 78
2021-02-16 07:00:00 7.8 16 Sudoeste 58 Sur 0 -- -- 75
2021-02-16 06:00:00 7.8 19 Sur 48 Sur 0 -- -- 76
2021-02-16 05:00:00 7.9 21 Sur 36 Sudeste 0 -- -- 77
2021-02-16 04:00:00 7.1 14 Sur 30 Sur 0 -- -- 81
2021-02-16 03:00:00 6.7 8 Sudeste 25 Sudeste 0 -- -- 83
2021-02-16 02:00:00 7.2 19 Sudeste 28 Sudeste 0 -- -- 83
2021-02-16 01:00:00 8 18 Sudeste 34 Sudeste 0 -- -- 78
2021-02-16 00:00:00 9.1 18 Sudeste 33 Sur 0 -- -- 72
2021-02-15 23:00:00 9.4 20 Sur 35 Sur 0 -- -- 72
2021-02-15 22:00:00 9.7 17 Sur 32 Sur 0 -- -- 72
2021-02-15 21:00:00 8.6 0 Calma 31 Sur 0 -- -- 70
2021-02-15 20:00:00 9.8 16 Sur 40 Sur 0 -- -- 66
2021-02-15 19:00:00 10.6 19 Sur 37 Sur 0 -- -- 58
2021-02-15 18:00:00 11.6 12 Sudoeste 26 Sudoeste 0 -- -- 57
2021-02-15 17:00:00 12.2 13 Sur 25 Este 0 -- -- 62
2021-02-15 16:00:00 10.9 13 Este 24 Este 0 -- -- 66
2021-02-15 15:00:00 10.4 13 Este 18 Este 0 -- -- 72
2021-02-15 14:00:00 10.5 7 Este 21 Sur 0 -- -- 73
2021-02-15 13:00:00 10.1 5 Sudeste 15 Sur 0 -- -- 74
2021-02-15 12:00:00 9.1 5 Sur 17 Sudeste 0 -- -- 79
2021-02-15 11:00:00 7.6 12 Sudeste 15 Sudeste 0 -- -- 87
2021-02-15 10:00:00 5.6 8 Sur 13 Sudoeste 0 -- -- 92
2021-02-15 09:00:00 4.1 6 Sudoeste 13 Sudoeste 0 -- -- 97
2021-02-15 08:00:00 3.2 2 Sur 8 Noroeste 0 -- -- 96
2021-02-15 07:00:00 4 2 Noroeste 7 Sudoeste 0 -- -- 96
2021-02-15 06:00:00 5.2 5 Noroeste 21 Sudeste 0 -- -- 92
2021-02-15 05:00:00 6.2 13 Sudeste 20 Sudeste 0 -- -- 91
2021-02-15 04:00:00 6.7 4 Sur 17 Sur 0 -- -- 88
2021-02-15 03:00:00 7.4 8 Sudeste 23 Sur 0 -- -- 86
2021-02-15 02:00:00 7.7 12 Sur 24 Sudeste 0 -- -- 87
2021-02-15 01:00:00 7.2 13 Sudeste 21 Sudeste 0 -- -- 91
2021-02-15 00:00:00 5.8 3 Este 11 Noroeste 0 -- -- 93
2021-02-14 23:00:00 5.6 2 Noroeste 6 Sur 0 -- -- 94
2021-02-14 22:00:00 6.3 4 Sudoeste 16 Sudeste 0 -- -- 89
2021-02-14 21:00:00 7.1 11 Sudeste 17 Sudeste 0 -- -- 88
2021-02-14 20:00:00 7.4 6 Sudeste 22 Sudeste 0 -- -- 86
2021-02-14 19:00:00 7.8 10 Sudeste 15 Sudeste 0 -- -- 85
2021-02-14 18:00:00 9.3 9 Sudoeste 14 Sudoeste 0 -- -- 78
2021-02-14 17:00:00 10.8 3 Sur 8 Sur 0 -- -- 73
2021-02-14 16:00:00 10.6 3 Este 9 Sur 0 -- -- 73
2021-02-14 15:00:00 10.9 3 Oeste 14 Sudoeste 0 -- -- 75
2021-02-14 14:00:00 10.2 6 Noroeste 17 Sudoeste 0 -- -- 83
2021-02-14 13:00:00 7.8 3 Nordeste 8 Este 0 -- -- 93
2021-02-14 12:00:00 5.2 0 Calma 3 Nordeste 0 -- -- 96
2021-02-14 11:00:00 3.4 0 Calma 4 Sudeste 0 -- -- 98
2021-02-14 10:00:00 1.7 2 Sur 4 Noroeste 0 -- -- 100
2021-02-14 09:00:00 -0.2 2 Sur 4 Sur 0 -- -- 100
2021-02-14 08:00:00 -0.3 0 Calma 3 Sur 0 -- -- 100
2021-02-14 07:00:00 -0.4 2 Sudoeste 6 Sudoeste 0 -- -- 100
2021-02-14 06:00:00 -0.5 0 Calma 5 Sudoeste 0 -- -- 100
2021-02-14 05:00:00 -0.2 2 Sudoeste 5 Sudoeste 0 -- -- 100
2021-02-14 04:00:00 0 0 Calma 5 Sudoeste 0 -- -- 100
2021-02-14 03:00:00 0.8 3 Sudoeste 6 Sudoeste 0 -- -- 99
2021-02-14 02:00:00 1.2 2 Sur 3 Sur 0 -- -- 99
2021-02-14 01:00:00 1.1 0 Calma 6 Sur 0 -- -- 99
2021-02-14 00:00:00 1.6 4 Sudoeste 6 Sudoeste 0 -- -- 99
2021-02-13 23:00:00 2 0 Calma 4 Sudeste 0 -- -- 96
2021-02-13 22:00:00 3.2 2 Oeste 7 Norte 0 -- -- 95
2021-02-13 21:00:00 4.4 0 Calma 5 Sur 0 -- -- 94
2021-02-13 20:00:00 5.5 2 Noroeste 8 Norte 0 -- -- 92
2021-02-13 19:00:00 7.2 2 Sur 7 Sudoeste 0 -- -- 85
2021-02-13 18:00:00 9.1 2 Oeste 8 Norte 0 -- -- 79
2021-02-13 17:00:00 9.4 0 Calma 6 Norte 0 -- -- 81
2021-02-13 16:00:00 9.2 3 Nordeste 4 Nordeste 0 -- -- 80
2021-02-13 15:00:00 8.8 0 Calma 4 Nordeste 0 -- -- 81
2021-02-13 14:00:00 7.3 4 Nordeste 9 Norte 0 -- -- 86
2021-02-13 13:00:00 6.1 4 Norte 6 Norte 0 -- -- 93
2021-02-13 08:00:00 -- -- -- -- -- -- -- -- --
2021-02-13 07:00:00 -- -- -- -- -- -- -- -- --
2021-02-13 06:00:00 0.1 0 Calma 6 Este 0 -- -- 100
2021-02-13 05:00:00 0.4 3 Este 7 Este 0 -- -- 100
2021-02-13 04:00:00 0.5 0 Calma 6 Sur 0 -- -- 100
2021-02-13 03:00:00 0.7 2 Sudeste 6 Sudeste 0 -- -- 100
2021-02-13 02:00:00 1 3 Sudeste 6 Este 0 -- -- 100
2021-02-13 01:00:00 1.4 3 Nordeste 5 Este 0 -- -- 100
2021-02-13 00:00:00 1.1 0 Calma 5 Sur 0 -- -- 99
2021-02-12 23:00:00 0.9 0 Calma 5 Noroeste 0 -- -- 98
2021-02-12 22:00:00 1.3 0 Calma 6 Sur 0 -- -- 97
2021-02-12 21:00:00 2 3 Noroeste 5 Noroeste 0 -- -- 95
2021-02-12 20:00:00 3.2 0 Calma 6 Noroeste 0 -- -- 94
2021-02-12 19:00:00 4.5 2 Oeste 6 Oeste 0 -- -- 90
2021-02-12 18:00:00 6.9 2 Norte 18 Noroeste 0 -- -- 83
2021-02-12 17:00:00 7.1 5 Norte 16 Nordeste 0 -- -- 82
2021-02-12 16:00:00 8.1 8 Nordeste 18 Noroeste 0 -- -- 84
2021-02-12 15:00:00 7.3 12 Norte 28 Nordeste 0 -- -- 86
2021-02-12 14:00:00 7 13 Noroeste 36 Noroeste 0 -- -- 84
2021-02-12 13:00:00 6.8 9 Oeste 28 Noroeste 0 -- -- 88
2021-02-12 12:00:00 6 5 Norte 14 Noroeste 0.4 -- -- 94
2021-02-12 11:00:00 5.5 2 Este 6 Nordeste 0.2 -- -- 94
2021-02-12 10:00:00 4.7 3 Sudeste 5 Sudeste 0 -- -- 97
2021-02-12 09:00:00 4.3 3 Sur 9 Norte 0.4 -- -- 95
2021-02-12 08:00:00 4.5 5 Nordeste 27 Norte 0.8 -- -- 94
2021-02-12 07:00:00 5.9 3 Sur 13 Oeste 0.2 -- -- 95
2021-02-12 06:00:00 6.2 4 Oeste 14 Oeste 0 -- -- 94
2021-02-12 05:00:00 6.3 3 Oeste 6 Sudoeste 0 -- -- 96
2021-02-12 04:00:00 7.2 5 Sudoeste 20 Sudoeste 1 -- -- 94
2021-02-12 03:00:00 7.6 6 Sudoeste 14 Sudoeste 1.8 -- -- 93
2021-02-12 02:00:00 8 2 Norte 28 Sudoeste 2.8 -- -- 94
2021-02-12 01:00:00 8.5 13 Sudoeste 27 Sudoeste 5.6 -- -- 93
2021-02-12 00:00:00 8.7 8 Sur 27 Sur 0.8 -- -- 92
2021-02-11 23:00:00 9 8 Sudoeste 53 Sur 0 -- -- 89
2021-02-11 22:00:00 8.5 23 Sudoeste 43 Sur 0.2 -- -- 94
2021-02-11 21:00:00 6.8 0 Calma 6 Noroeste 0 -- -- 98
2021-02-11 20:00:00 6.8 3 Noroeste 6 Este 0 -- -- 97
2021-02-11 19:00:00 7.2 3 Noroeste 11 Sur 0 -- -- 95
2021-02-11 18:00:00 7.6 2 Este 12 Este 0 -- -- 93
2021-02-11 17:00:00 7.4 4 Norte 10 Este 0 -- -- 92
2021-02-11 16:00:00 7.7 2 Sur 23 Sur 0 -- -- 90
2021-02-11 15:00:00 8.4 16 Sudeste 23 Sur 0 -- -- 87
2021-02-11 14:00:00 7.6 9 Sur 14 Sur 0 -- -- 92
2021-02-11 13:00:00 6.3 0 Calma 4 Norte 0 -- -- 97
2021-02-11 12:00:00 5.6 0 Calma 8 Sudoeste 0.2 -- -- 95
2021-02-11 11:00:00 5.1 5 Este 10 Sudeste 0.4 -- -- 94
2021-02-11 10:00:00 4.2 0 Calma 7 Sur 0 -- -- 95
2021-02-11 09:00:00 2.9 3 Oeste 8 Sudoeste 0 -- -- 95
2021-02-11 08:00:00 3 0 Calma 5 Sur 0 -- -- 94
2021-02-11 07:00:00 3.3 0 Calma 6 Sur 0 -- -- 92
2021-02-11 06:00:00 3.2 4 Sudoeste 8 Sudoeste 0 -- -- 91
2021-02-11 05:00:00 3 0 Calma 4 Sur 0 -- -- 92
2021-02-11 04:00:00 3 4 Sur 7 Sudeste 0 -- -- 92
2021-02-11 03:00:00 2.9 0 Calma 6 Sudeste 0 -- -- 94
2021-02-11 02:00:00 2.5 0 Calma 3 Sudeste 0 -- -- 96
2021-02-11 01:00:00 2.3 2 Sudoeste 9 Noroeste 0 -- -- 95
2021-02-11 00:00:00 2.1 0 Calma 9 Sudoeste 0 -- -- 96
2021-02-10 23:00:00 1.8 0 Calma 5 Noroeste 0 -- -- 96
2021-02-10 22:00:00 2.3 0 Calma 5 Sur 0 -- -- 93
2021-02-10 21:00:00 3.1 0 Calma 3 Este 0 -- -- 92
2021-02-10 20:00:00 3.7 2 Oeste 8 Sudoeste 0 -- -- 90
2021-02-10 19:00:00 5.2 3 Sur 7 Sur 0 -- -- 81
2021-02-10 18:00:00 7.5 4 Sudoeste 13 Sudoeste 0 -- -- 72
2021-02-10 17:00:00 8.9 8 Sur 19 Sur 0 -- -- 65
2021-02-10 16:00:00 8.9 8 Sudoeste 18 Sudoeste 0 -- -- 68
2021-02-10 15:00:00 8.4 7 Nordeste 12 Nordeste 0 -- -- 73
2021-02-10 14:00:00 7.4 6 Este 17 Norte 0 -- -- 72
2021-02-10 13:00:00 5.9 12 Nordeste 28 Noroeste 1.4 -- -- 80
2021-02-10 12:00:00 4.6 10 Norte 30 Norte 1.8 -- -- 80
2021-02-10 11:00:00 2.8 5 Noroeste 21 Oeste 0.6 -- -- 82
2021-02-10 10:00:00 1 0 Calma 6 Noroeste 0 -- -- 94
2021-02-10 09:00:00 0.3 0 Calma 4 Sudoeste 0 -- -- 97
2021-02-10 08:00:00 -0.2 0 Calma 3 Sudoeste 0.2 -- -- 98
2021-02-10 07:00:00 0.2 2 Sudoeste 6 Sudoeste 0 -- -- 98
2021-02-10 06:00:00 0.4 0 Calma 4 Sudoeste 0 -- -- 98
2021-02-10 05:00:00 0.4 4 Sudoeste 7 Este 0.2 -- -- 98
2021-02-10 04:00:00 0.3 0 Calma 7 Este 0 -- -- 99
2021-02-10 03:00:00 0.4 0 Calma 4 Este 0 -- -- 98
2021-02-10 02:00:00 0.7 4 Sudeste 7 Este 0.2 -- -- 97
2021-02-10 01:00:00 0.8 2 Sudoeste 7 Sudeste 0.2 -- -- 97
2021-02-10 00:00:00 0.9 0 Calma 4 Oeste 0.2 -- -- 97
2021-02-09 23:00:00 1.1 3 Este 9 Este 0.2 -- -- 95
2021-02-09 22:00:00 1.1 3 Norte 13 Sudeste 0.4 -- -- 92
2021-02-09 21:00:00 0.6 3 Este 6 Este 0.2 -- -- 96
2021-02-09 20:00:00 2.1 0 Calma 26 Sur 1 -- -- 91
2021-02-09 19:00:00 2.7 12 Sur 33 Sur 0.6 -- -- 87
2021-02-09 18:00:00 3.1 15 Sudoeste 31 Sur 0.2 -- -- 84
2021-02-09 17:00:00 3.6 9 Sudoeste 28 Sudoeste 0 -- -- 77
2021-02-09 16:00:00 3.6 9 Sudoeste 35 Sudoeste 0 -- -- 83
2021-02-09 15:00:00 4.4 12 Sudoeste 31 Oeste 0 -- -- 77
2021-02-09 14:00:00 3.5 16 Sudoeste 30 Sudoeste 0 -- -- 78
2021-02-09 13:00:00 3.5 3 Sudoeste 41 Sudoeste 0.6 -- -- 87
2021-02-09 12:00:00 3.9 9 Sudoeste 23 Sudoeste 2 -- -- 89
2021-02-09 11:00:00 4.1 2 Sudeste 19 Sur 2.2 -- -- 93
2021-02-09 10:00:00 4.2 14 Sudoeste 25 Sudoeste 2.6 -- -- 89
2021-02-09 09:00:00 4 10 Sudoeste 43 Sudoeste 2 -- -- 91
2021-02-09 08:00:00 3.2 11 Sudeste 40 Sur 2 -- -- 94
2021-02-09 07:00:00 3.4 19 Sur 62 Sur 1.4 -- -- 90
2021-02-09 06:00:00 3 18 Sur 36 Sur 0.8 -- -- 93
2021-02-09 05:00:00 2.3 3 Sudeste 18 Sudeste 0.4 -- -- 95
2021-02-09 04:00:00 2.6 9 Sudeste 14 Sudeste 0.4 -- -- 95
2021-02-09 03:00:00 3 2 Sur 7 Sudeste 0.6 -- -- 95
2021-02-09 02:00:00 3.3 0 Calma 22 Sudoeste 0 -- -- 90
2021-02-09 01:00:00 3 6 Sur 18 Sur 0.2 -- -- 92
2021-02-09 00:00:00 1.8 0 Calma 5 Oeste 0.2 -- -- 97
2021-02-08 23:00:00 1 3 Este 7 Este 0 -- -- 98
2021-02-08 22:00:00 1.1 2 Nordeste 5 Sur 0 -- -- 95
2021-02-08 21:00:00 1.9 5 Sudeste 10 Este 0 -- -- 95
2021-02-08 20:00:00 2.6 0 Calma 5 Sur 0 -- -- 91
2021-02-08 19:00:00 4 0 Calma 15 Sudoeste 0 -- -- 90
2021-02-08 18:00:00 5 9 Sudoeste 18 Oeste 0 -- -- 82
2021-02-08 17:00:00 6.7 7 Sudoeste 25 Sudoeste 0 -- -- 73
2021-02-08 16:00:00 6.9 7 Sur 21 Sur 0 -- -- 77
2021-02-08 15:00:00 5.3 6 Sur 24 Sudoeste 0.2 -- -- 87
2021-02-08 14:00:00 5.7 9 Sudoeste 24 Sudoeste 0 -- -- 82
2021-02-08 13:00:00 5.3 11 Sudoeste 23 Sudoeste 0 -- -- 88
2021-02-08 12:00:00 3.8 3 Sur 12 Sudoeste 0 -- -- 90
2021-02-08 11:00:00 2.9 5 Sudeste 14 Este 0 -- -- 94
2021-02-08 10:00:00 2.4 2 Oeste 18 Sudoeste 0 -- -- 93
2021-02-08 09:00:00 1.6 9 Sudoeste 14 Sudoeste 0 -- -- 94
2021-02-08 08:00:00 1.2 3 Sur 9 Oeste 0 -- -- 98
2021-02-08 07:00:00 1.4 2 Sudoeste 12 Sur 0 -- -- 97
2021-02-08 06:00:00 1.6 3 Oeste 13 Sudoeste 0 -- -- 98
2021-02-08 05:00:00 1.3 3 Sudoeste 6 Sur 0.2 -- -- 98
2021-02-08 04:00:00 1.4 0 Calma 13 Este 0.4 -- -- 98
2021-02-08 03:00:00 0.8 3 Sur 6 Sudoeste 0.4 -- -- 98
2021-02-08 02:00:00 0.8 3 Sur 11 Este 0.8 -- -- 97
2021-02-08 01:00:00 1.3 3 Sur 12 Sudeste 0.4 -- -- 96
2021-02-08 00:00:00 1.4 2 Sudoeste 8 Sur 0.4 -- -- 96
2021-02-07 23:00:00 1.8 4 Sur 11 Sudeste 0 -- -- 96
2021-02-07 22:00:00 1.6 5 Sudeste 10 Sudeste 0 -- -- 97
2021-02-07 21:00:00 1.5 2 Nordeste 6 Este 0 -- -- 96
2021-02-07 20:00:00 1.4 5 Este 11 Este 0 -- -- 96
2021-02-07 19:00:00 1.3 7 Este 10 Este 0.2 -- -- 95
2021-02-07 18:00:00 1.5 5 Este 8 Este 0.2 -- -- 94
2021-02-07 17:00:00 1.9 3 Sur 11 Sudoeste 0 -- -- 90
2021-02-07 16:00:00 2.2 6 Sudoeste 12 Oeste 0 -- -- 84
2021-02-07 15:00:00 3 4 Sudoeste 12 Sudoeste 0 -- -- 78
2021-02-07 14:00:00 3.5 4 Nordeste 7 Norte 0 -- -- 73
2021-02-07 13:00:00 2.2 3 Norte 6 Norte 0 -- -- 80
2021-02-07 12:00:00 0.8 2 Norte 4 Este 0 -- -- 85
2021-02-07 11:00:00 -0.2 0 Calma 3 Sudeste 0.2 -- -- 86
2021-02-07 10:00:00 -1.5 0 Calma 4 Sudeste 0 -- -- 89
2021-02-07 09:00:00 -2.7 0 Calma 3 Sudeste 0 -- -- 93
2021-02-07 08:00:00 -2.9 0 Calma 5 Este 0 -- -- 94
2021-02-07 07:00:00 -2.9 2 Este 6 Sur 0 -- -- 95
2021-02-07 06:00:00 -2.5 0 Calma 6 Sur 0 -- -- 92
2021-02-07 05:00:00 -1.9 3 Sur 14 Sudeste 0 -- -- 92
2021-02-07 04:00:00 -1.2 2 Noroeste 18 Norte 0 -- -- 86
2021-02-07 03:00:00 -0.6 11 Norte 18 Nordeste 0 -- -- 90
2021-02-07 02:00:00 0 11 Norte 22 Norte 0 -- -- 90
2021-02-07 01:00:00 0.2 15 Nordeste 21 Norte 0 -- -- 93
2021-02-07 00:00:00 0.2 7 Nordeste 28 Norte 0 -- -- 90
2021-02-06 23:00:00 0.5 19 Norte 33 Norte 0 -- -- 94
2021-02-06 22:00:00 0.9 15 Nordeste 27 Norte 0 -- -- 95
2021-02-06 21:00:00 1.1 17 Norte 27 Norte 0 -- -- 95
2021-02-06 20:00:00 1.2 21 Norte 29 Norte 0 -- -- 94
2021-02-06 19:00:00 1.5 18 Norte 33 Norte 0 -- -- 92
2021-02-06 18:00:00 2.3 22 Norte 31 Norte 0 -- -- 89
2021-02-06 17:00:00 2.9 18 Norte 28 Norte 0 -- -- 90
2021-02-06 16:00:00 3.3 14 Norte 28 Norte 0 -- -- 90
2021-02-06 15:00:00 3.3 20 Norte 33 Norte 0 -- -- 91
2021-02-06 14:00:00 3.5 23 Norte 31 Norte 0 -- -- 91
2021-02-06 13:00:00 2.9 23 Norte 28 Norte 0 -- -- 94
2021-02-06 12:00:00 2.8 18 Norte 24 Norte 0 -- -- 94
2021-02-06 11:00:00 2.5 15 Norte 26 Norte 0 -- -- 95
2021-02-06 10:00:00 2.6 14 Norte 27 Norte 0 -- -- 94
2021-02-06 09:00:00 2.7 17 Norte 25 Norte 0 -- -- 93
2021-02-06 08:00:00 2.8 17 Norte 32 Norte 0 -- -- 94
2021-02-06 07:00:00 3 21 Norte 38 Norte 0 -- -- 93
2021-02-06 06:00:00 3 14 Norte 31 Norte 0 -- -- 94
2021-02-06 05:00:00 3.4 14 Norte 31 Norte 0 -- -- 92
2021-02-06 04:00:00 3.6 15 Norte 39 Noroeste 0 -- -- 92
2021-02-06 03:00:00 3.5 15 Norte 27 Norte 0 -- -- 93
2021-02-06 02:00:00 3.2 13 Norte 29 Norte 0 -- -- 95
2021-02-06 01:00:00 3.4 9 Noroeste 26 Norte 0 -- -- 95
2021-02-06 00:00:00 3.4 15 Norte 28 Norte 0 -- -- 96
2021-02-05 23:00:00 4.1 13 Norte 20 Nordeste 0 -- -- 97
2021-02-05 22:00:00 4.6 10 Nordeste 19 Nordeste 0 -- -- 97
2021-02-05 21:00:00 4.6 2 Sudoeste 16 Nordeste 0 -- -- 95
2021-02-05 20:00:00 4.4 7 Norte 18 Norte 0 -- -- 95
2021-02-05 19:00:00 4.4 3 Noroeste 9 Oeste 0 -- -- 94
2021-02-05 18:00:00 4.7 5 Norte 17 Nordeste 0 -- -- 94
2021-02-05 17:00:00 4.6 8 Nordeste 19 Nordeste 0 -- -- 95
2021-02-05 16:00:00 4.7 3 Nordeste 8 Nordeste 0 -- -- 95
2021-02-05 15:00:00 4.4 0 Calma 10 Norte 0 -- -- 97
2021-02-05 14:00:00 3.7 3 Norte 5 Norte 0 -- -- 97
2021-02-05 13:00:00 3.4 0 Calma 12 Norte 0 -- -- 96
2021-02-05 12:00:00 3.4 6 Nordeste 16 Nordeste 0 -- -- 97
2021-02-05 11:00:00 3.4 9 Nordeste 14 Norte 0 -- -- 97
2021-02-05 10:00:00 3.6 3 Este 7 Este 0 -- -- 97
2021-02-05 09:00:00 3.4 3 Este 7 Este 0 -- -- 98
2021-02-05 08:00:00 3.3 2 Este 5 Este 0 -- -- 97
2021-02-05 07:00:00 3.3 0 Calma 5 Noroeste 0 -- -- 97
2021-02-05 06:00:00 3.3 3 Norte 5 Norte 0 -- -- 98
2021-02-05 05:00:00 3.4 0 Calma 5 Nordeste 0 -- -- 98
2021-02-05 04:00:00 3.4 0 Calma 2 Sur 0 -- -- 97
2021-02-05 03:00:00 3.4 0 Calma 3 Sudoeste 0 -- -- 97
2021-02-05 02:00:00 3.4 0 Calma 3 Noroeste 0 -- -- 97
2021-02-05 01:00:00 3.5 0 Calma 4 Norte 0 -- -- 97
2021-02-05 00:00:00 3.5 0 Calma 6 Este 0 -- -- 97
2021-02-04 23:00:00 3.5 0 Calma 2 Sur 0 -- -- 96
2021-02-04 22:00:00 3.4 0 Calma 6 Sudoeste 0 -- -- 96
2021-02-04 21:00:00 3.3 6 Sudoeste 9 Sudoeste 0 -- -- 96
2021-02-04 20:00:00 3.4 0 Calma 5 Este 0 -- -- 94
2021-02-04 19:00:00 3.7 0 Calma 4 Sudoeste 0 -- -- 93
2021-02-04 18:00:00 3.9 0 Calma 3 Noroeste 0 -- -- 91
2021-02-04 17:00:00 4 0 Calma 4 Noroeste 0 -- -- 89
2021-02-04 16:00:00 4.3 0 Calma 6 Sudeste 0 -- -- 88
2021-02-04 15:00:00 4.3 3 Este 14 Este 0 -- -- 88
2021-02-04 14:00:00 4.9 11 Este 21 Sur 0 -- -- 83
2021-02-04 13:00:00 6.3 5 Sur 9 Sur 0 -- -- 71
2021-02-04 12:00:00 6.4 0 Calma 22 Sudeste 0 -- -- 77
2021-02-04 11:00:00 6 10 Sudeste 23 Sudeste 0 -- -- 80
2021-02-04 10:00:00 5.1 11 Sudeste 17 Sudeste 0 -- -- 84
2021-02-04 09:00:00 4.8 10 Sur 21 Sur 0 -- -- 83
2021-02-04 08:00:00 4.9 8 Sur 15 Sudeste 0 -- -- 82
2021-02-04 07:00:00 5 5 Sudeste 18 Sudoeste 0 -- -- 82
2021-02-04 06:00:00 5.2 10 Sur 20 Sudoeste 0 -- -- 81
2021-02-04 05:00:00 5.2 10 Sur 27 Sur 0 -- -- 81
2021-02-04 04:00:00 4.9 14 Sur 33 Sur 0 -- -- 82
2021-02-04 03:00:00 5.2 17 Sur 29 Sudoeste 0 -- -- 80
2021-02-04 02:00:00 5.7 15 Sudoeste 41 Sudoeste 0 -- -- 80
2021-02-04 01:00:00 6.4 14 Sudoeste 38 Sur 0 -- -- 80
2021-02-04 00:00:00 6.7 21 Sur 39 Sudoeste 0 -- -- 76